createdAt,value
2023-03-06T00:03:28.364Z,100663.00
2023-03-06T00:08:31.092Z,100682.94
2023-03-06T00:13:35.395Z,100664.91
2023-03-06T00:18:37.958Z,100658.59
2023-03-06T00:23:41.574Z,100682.78
2023-03-06T00:28:44.029Z,100688.22
2023-03-06T00:33:47.248Z,100689.81
2023-03-06T00:38:50.303Z,100646.31
2023-03-06T00:43:53.191Z,100665.88
2023-03-06T00:48:56.191Z,100668.50
2023-03-06T00:53:58.782Z,100619.56
2023-03-06T00:59:01.309Z,100628.03
2023-03-06T01:04:04.370Z,100645.16
2023-03-06T01:09:06.887Z,100603.72
2023-03-06T01:14:11.135Z,100607.50
2023-03-06T01:19:13.662Z,100620.75
2023-03-06T01:24:16.726Z,100610.75
2023-03-06T01:29:20.239Z,100627.78
2023-03-06T01:34:22.795Z,100652.31
2023-03-06T01:39:25.904Z,100639.06
2023-03-06T01:44:28.492Z,100662.53
2023-03-06T01:49:37.869Z,100647.50
2023-03-06T01:54:51.996Z,100644.50
2023-03-06T02:00:03.548Z,100624.59
2023-03-06T02:05:17.298Z,100636.19
2023-03-06T02:10:22.334Z,100633.38
2023-03-06T02:15:27.446Z,100654.22
2023-03-06T02:20:35.609Z,100648.13
2023-03-06T02:25:45.928Z,100660.00
2023-03-06T02:30:52.767Z,100658.38
2023-03-06T02:36:00.189Z,100607.56
2023-03-06T02:41:07.247Z,100610.38
2023-03-06T02:46:10.344Z,100644.97
2023-03-06T02:51:13.036Z,100628.09
2023-03-06T02:56:15.923Z,100621.94
2023-03-06T03:01:19.068Z,100597.72
2023-03-06T03:06:23.106Z,100628.88
2023-03-06T03:11:26.722Z,100610.56
2023-03-06T03:16:29.861Z,100611.59
2023-03-06T03:21:34.341Z,100603.41
2023-03-06T03:26:37.462Z,100574.16
2023-03-06T03:31:48.100Z,100603.44
2023-03-06T03:36:51.151Z,100565.47
2023-03-06T03:41:53.669Z,100579.63
2023-03-06T03:46:57.432Z,100587.88
2023-03-06T03:52:01.211Z,100585.06
2023-03-06T03:57:07.979Z,100599.25
2023-03-06T04:02:15.652Z,100588.19
2023-03-06T04:07:30.727Z,100593.31
2023-03-06T04:12:33.236Z,100604.81
2023-03-06T04:17:36.900Z,100601.84
2023-03-06T04:22:42.906Z,100592.75
2023-03-06T04:27:48.589Z,100594.47
2023-03-06T04:32:53.910Z,100584.00
2023-03-06T04:37:57.543Z,100578.34
2023-03-06T04:43:04.178Z,100594.47
2023-03-06T04:48:06.814Z,100567.41
2023-03-06T04:53:09.896Z,100584.03
2023-03-06T04:58:14.142Z,100570.00
2023-03-06T05:03:18.077Z,100572.78
2023-03-06T05:08:21.198Z,100569.25
2023-03-06T05:13:24.878Z,100571.81
2023-03-06T05:18:28.713Z,100580.91
2023-03-06T05:23:33.558Z,100580.91
2023-03-06T05:28:38.632Z,100574.59
2023-03-06T05:39:33.375Z,100415.75
2023-03-06T05:44:45.310Z,100498.38
2023-03-06T05:49:49.708Z,100555.16
2023-03-06T05:54:56.355Z,100581.22
2023-03-06T06:00:00.098Z,100537.66
2023-03-06T06:05:05.943Z,100563.78
2023-03-06T06:10:12.626Z,100572.25
2023-03-06T06:15:17.282Z,100558.41
2023-03-06T06:20:20.683Z,100563.09
2023-03-06T06:25:26.461Z,100524.31
2023-03-06T06:30:36.595Z,100535.75
2023-03-06T06:35:49.235Z,100481.81
2023-03-06T06:41:19.344Z,100506.72
2023-03-06T06:46:59.006Z,100506.13
2023-03-06T06:51:57.554Z,100360.44
2023-03-06T06:57:01.729Z,100487.31
2023-03-06T07:02:08.677Z,100482.09
2023-03-06T07:07:13.790Z,100517.63
2023-03-06T07:12:18.816Z,100516.19
2023-03-06T07:17:24.418Z,100502.38
2023-03-06T07:22:32.014Z,100508.84
2023-03-06T07:27:52.838Z,100496.22
2023-03-06T07:32:57.576Z,100471.78
2023-03-06T07:38:03.129Z,100475.25
2023-03-06T07:43:19.161Z,100522.78
2023-03-06T07:48:34.048Z,100511.00
2023-03-06T07:53:37.685Z,100528.81
2023-03-06T07:58:50.106Z,100514.59
2023-03-06T08:04:02.376Z,100497.22
2023-03-06T08:09:05.466Z,100500.72
2023-03-06T08:14:09.378Z,100496.50
2023-03-06T08:19:12.597Z,100509.75
2023-03-06T08:24:17.561Z,100499.28
2023-03-06T08:29:20.453Z,100479.13
2023-03-06T08:34:26.612Z,100455.53
2023-03-06T08:39:29.786Z,100486.66
2023-03-06T08:44:33.297Z,100495.44
2023-03-06T08:49:39.854Z,100489.63
2023-03-06T08:54:43.999Z,100483.16
2023-03-06T08:59:46.612Z,100487.38
2023-03-06T09:04:50.986Z,100469.47
2023-03-06T09:09:58.590Z,100460.56
2023-03-06T09:15:04.667Z,100462.75
2023-03-06T09:20:14.456Z,100459.16
2023-03-06T09:25:23.781Z,100372.22
2023-03-06T09:30:26.995Z,100463.50
2023-03-06T09:35:30.550Z,100465.56
2023-03-06T09:40:59.212Z,100441.63
2023-03-06T09:46:39.904Z,100445.63
2023-03-06T09:52:24.914Z,100441.97
2023-03-06T09:57:28.780Z,100447.38
2023-03-06T10:02:42.096Z,100451.59
2023-03-06T10:08:36.422Z,100455.88
2023-03-06T10:13:42.391Z,100457.25
2023-03-06T10:18:47.264Z,100459.09
2023-03-06T10:24:04.480Z,100467.94
2023-03-06T10:29:22.656Z,100465.66
2023-03-06T10:34:33.658Z,100461.63
2023-03-06T10:39:45.990Z,100424.91
2023-03-06T10:44:50.722Z,100448.16
2023-03-06T10:50:07.338Z,100459.78
2023-03-06T10:55:33.098Z,100440.53
2023-03-06T11:00:39.296Z,100436.25
2023-03-06T11:06:13.318Z,100444.09
2023-03-06T11:11:36.905Z,100459.03
2023-03-06T11:16:41.751Z,100449.59
2023-03-06T11:22:28.153Z,100468.16
2023-03-06T11:27:35.963Z,100413.75
2023-03-06T11:32:51.182Z,100471.03
2023-03-06T11:38:06.876Z,100488.88
2023-03-06T11:43:26.413Z,100495.00
2023-03-06T11:48:43.776Z,100483.44
2023-03-06T11:53:50.497Z,100474.28
2023-03-06T11:59:14.298Z,100475.78
2023-03-06T12:04:40.210Z,100495.09
2023-03-06T12:09:50.923Z,100493.00
2023-03-06T12:14:53.811Z,100450.88
2023-03-06T12:20:15.632Z,100503.41
2023-03-06T12:25:23.753Z,100493.94
2023-03-06T12:31:02.834Z,100505.44
2023-03-06T12:36:35.396Z,100500.59
2023-03-06T12:41:44.417Z,100502.94
2023-03-06T12:46:56.017Z,100476.00
2023-03-06T12:52:03.636Z,100480.13
2023-03-06T12:57:09.497Z,100476.91
2023-03-06T13:02:14.791Z,100528.91
2023-03-06T13:07:49.341Z,100516.75
2023-03-06T13:12:58.099Z,100543.78
2023-03-06T13:18:02.196Z,100553.22
2023-03-06T13:23:30.332Z,100557.44
2023-03-06T13:28:51.225Z,100556.66
2023-03-06T13:33:55.862Z,100547.34
2023-03-06T13:39:09.075Z,100563.81
2023-03-06T13:44:27.521Z,100570.72
2023-03-06T13:49:35.045Z,100542.28
2023-03-06T14:01:14.718Z,100583.94
2023-03-06T14:06:38.102Z,100581.13
2023-03-06T14:11:51.184Z,100584.78
2023-03-06T14:16:54.618Z,100595.75
2023-03-06T14:21:57.968Z,100618.09
2023-03-06T14:27:01.825Z,100588.03
2023-03-06T14:32:10.090Z,100598.56
2023-03-06T14:37:24.893Z,100633.50
2023-03-06T14:42:29.283Z,100628.59
2023-03-06T14:47:37.336Z,100643.97
2023-03-06T14:52:41.403Z,100652.63
2023-03-06T14:57:44.188Z,100666.53
2023-03-06T15:02:48.752Z,100666.06
2023-03-06T15:07:54.225Z,100650.47
2023-03-06T15:13:08.383Z,100671.41
2023-03-06T15:18:35.650Z,100701.59
2023-03-06T15:23:44.031Z,100710.22
2023-03-06T15:29:17.020Z,100720.41
2023-03-06T15:34:24.019Z,100742.53
2023-03-06T15:39:38.304Z,100745.53
2023-03-06T15:44:41.008Z,100760.22
2023-03-06T15:49:43.381Z,100749.31
2023-03-06T15:54:45.867Z,100759.25
2023-03-06T15:59:48.280Z,100772.28
2023-03-06T16:04:51.961Z,100776.38
2023-03-06T16:09:55.618Z,100767.31
2023-03-06T16:15:01.610Z,100788.75
2023-03-06T16:20:06.367Z,100797.31
2023-03-06T16:25:09.167Z,100779.25
2023-03-06T16:30:18.967Z,100800.63
2023-03-06T16:35:21.555Z,100822.38
2023-03-06T16:40:29.205Z,100819.22
2023-03-06T16:45:32.063Z,100840.59
2023-03-06T16:50:39.020Z,100826.44
2023-03-06T16:55:41.841Z,100828.03
2023-03-06T17:00:44.257Z,100861.16
2023-03-06T17:05:46.715Z,100839.16
2023-03-06T17:10:50.251Z,100863.84
2023-03-06T17:15:59.395Z,100874.31
2023-03-06T17:21:01.970Z,100898.94
2023-03-06T17:26:19.479Z,100899.09
2023-03-06T17:31:25.580Z,100905.06
2023-03-06T17:36:29.841Z,100904.06
2023-03-06T17:41:34.372Z,100921.59
2023-03-06T17:46:36.901Z,100906.28
2023-03-06T17:51:39.441Z,100935.13
2023-03-06T17:56:42.405Z,100942.66
2023-03-06T18:01:50.596Z,100948.88
2023-03-06T18:06:59.602Z,100964.34
2023-03-06T18:12:02.413Z,100920.22
2023-03-06T18:17:04.817Z,100899.94
2023-03-06T18:22:07.179Z,100913.03
2023-03-06T18:27:09.703Z,100944.97
2023-03-06T18:32:12.450Z,100988.16
2023-03-06T18:37:14.985Z,100955.91
2023-03-06T18:42:18.739Z,100967.38
2023-03-06T18:47:21.266Z,100942.72
2023-03-06T18:52:23.497Z,100982.81
2023-03-06T18:57:26.016Z,100960.75
2023-03-06T19:02:28.379Z,100966.66
2023-03-06T19:07:30.823Z,100990.25
2023-03-06T19:12:35.708Z,100996.47
2023-03-06T19:17:38.446Z,101015.13
2023-03-06T19:22:41.267Z,101018.91
2023-03-06T19:27:46.237Z,101008.94
2023-03-06T19:32:49.087Z,101035.97
2023-03-06T19:37:52.716Z,101003.22
2023-03-06T19:42:55.887Z,101055.31
2023-03-06T19:48:01.152Z,101042.69
2023-03-06T19:53:04.752Z,101070.53
2023-03-06T19:58:07.883Z,101080.06
2023-03-06T20:03:10.237Z,101081.03
2023-03-06T20:08:12.640Z,101076.94
2023-03-06T20:13:16.626Z,101074.78
2023-03-06T20:18:19.607Z,101052.19
2023-03-06T20:23:22.020Z,101091.84
2023-03-06T20:28:24.526Z,101071.50
2023-03-06T20:33:27.850Z,101087.75
2023-03-06T20:38:30.723Z,101069.38
2023-03-06T20:43:33.238Z,101057.06
2023-03-06T20:48:36.117Z,101105.56
2023-03-06T20:53:39.077Z,101105.56
2023-03-06T20:58:42.064Z,101109.78
2023-03-06T21:03:44.825Z,101109.88
2023-03-06T21:08:47.882Z,101097.88
2023-03-06T21:13:50.873Z,101128.03
2023-03-06T21:18:56.179Z,101115.13
2023-03-06T21:23:59.265Z,101129.56
2023-03-06T21:29:02.989Z,101158.41
2023-03-06T21:34:06.474Z,101149.06
2023-03-06T21:39:08.883Z,101148.38
2023-03-06T21:44:11.269Z,101118.09
2023-03-06T21:49:13.633Z,101145.00
2023-03-06T21:54:16.410Z,101173.13
2023-03-06T21:59:19.204Z,101174.91
2023-03-06T22:04:23.718Z,101173.06
2023-03-06T22:09:26.158Z,101189.06
2023-03-06T22:14:29.698Z,101187.34
2023-03-06T22:19:33.428Z,101175.94
2023-03-06T22:24:36.274Z,101176.69
2023-03-06T22:29:39.076Z,101179.81
2023-03-06T22:34:42.057Z,101207.81
2023-03-06T22:39:44.376Z,101159.63
2023-03-06T22:44:47.845Z,101219.91
2023-03-06T22:49:50.718Z,101205.13
2023-03-06T22:54:53.488Z,101235.84
2023-03-06T22:59:56.225Z,101231.13
2023-03-06T23:05:00.842Z,101233.53
2023-03-06T23:10:07.089Z,101251.97
2023-03-06T23:15:28.626Z,101240.03
2023-03-06T23:20:49.803Z,101225.69
2023-03-06T23:26:14.922Z,101252.81
2023-03-06T23:31:22.769Z,101228.59
2023-03-06T23:36:25.606Z,101264.31
2023-03-06T23:41:29.339Z,101250.97
2023-03-06T23:46:32.457Z,101267.16
2023-03-06T23:51:34.977Z,101262.91
2023-03-06T23:56:37.625Z,101272.19
